sensor_id;sensor_type;location;lat;lon;timestamp;P1;durP1;ratioP1;P2;durP2;ratioP2
67053;SDS011;53960;51.826;5.850;2023-07-20T00:01:25;14.03;;;7.17;;
67053;SDS011;53960;51.826;5.850;2023-07-20T00:03:51;14.27;;;6.65;;
67053;SDS011;53960;51.826;5.850;2023-07-20T00:06:22;13.10;;;6.63;;
67053;SDS011;53960;51.826;5.850;2023-07-20T00:08:52;12.98;;;7.03;;
67053;SDS011;53960;51.826;5.850;2023-07-20T00:11:24;12.88;;;7.07;;
67053;SDS011;53960;51.826;5.850;2023-07-20T00:13:51;16.88;;;7.55;;
67053;SDS011;53960;51.826;5.850;2023-07-20T00:16:16;15.10;;;7.33;;
67053;SDS011;53960;51.826;5.850;2023-07-20T00:18:41;13.50;;;7.40;;
67053;SDS011;53960;51.826;5.850;2023-07-20T00:21:07;16.10;;;7.37;;
67053;SDS011;53960;51.826;5.850;2023-07-20T00:23:32;16.63;;;8.23;;
67053;SDS011;53960;51.826;5.850;2023-07-20T00:25:57;15.45;;;7.50;;
67053;SDS011;53960;51.826;5.850;2023-07-20T00:28:23;13.27;;;7.10;;
67053;SDS011;53960;51.826;5.850;2023-07-20T00:30:48;14.63;;;7.47;;
67053;SDS011;53960;51.826;5.850;2023-07-20T00:33:17;15.23;;;7.57;;
67053;SDS011;53960;51.826;5.850;2023-07-20T00:35:43;17.15;;;8.02;;
67053;SDS011;53960;51.826;5.850;2023-07-20T00:38:09;14.00;;;7.27;;
67053;SDS011;53960;51.826;5.850;2023-07-20T00:40:40;13.82;;;7.15;;
67053;SDS011;53960;51.826;5.850;2023-07-20T00:43:06;14.43;;;6.93;;
67053;SDS011;53960;51.826;5.850;2023-07-20T00:45:33;13.32;;;7.03;;
67053;SDS011;53960;51.826;5.850;2023-07-20T00:47:59;14.65;;;7.38;;
67053;SDS011;53960;51.826;5.850;2023-07-20T00:50:26;15.30;;;8.63;;
67053;SDS011;53960;51.826;5.850;2023-07-20T00:52:52;13.47;;;7.63;;
67053;SDS011;53960;51.826;5.850;2023-07-20T00:55:18;13.95;;;7.72;;
67053;SDS011;53960;51.826;5.850;2023-07-20T00:57:44;15.73;;;7.65;;
67053;SDS011;53960;51.826;5.850;2023-07-20T01:00:10;13.57;;;6.93;;
67053;SDS011;53960;51.826;5.850;2023-07-20T01:02:35;13.70;;;6.55;;
67053;SDS011;53960;51.826;5.850;2023-07-20T01:05:01;12.03;;;6.50;;
67053;SDS011;53960;51.826;5.850;2023-07-20T01:07:31;11.93;;;6.95;;
67053;SDS011;53960;51.826;5.850;2023-07-20T01:12:47;11.95;;;7.13;;
67053;SDS011;53960;51.826;5.850;2023-07-20T01:15:14;12.47;;;6.40;;
67053;SDS011;53960;51.826;5.850;2023-07-20T01:17:39;13.27;;;6.10;;
67053;SDS011;53960;51.826;5.850;2023-07-20T01:20:06;12.57;;;6.23;;
67053;SDS011;53960;51.826;5.850;2023-07-20T01:22:43;11.45;;;5.78;;
67053;SDS011;53960;51.826;5.850;2023-07-20T01:25:22;15.45;;;6.35;;
67053;SDS011;53960;51.826;5.850;2023-07-20T01:33:19;11.93;;;6.03;;
67053;SDS011;53960;51.826;5.850;2023-07-20T01:35:57;10.57;;;5.38;;
67053;SDS011;53960;51.826;5.850;2023-07-20T01:38:24;11.82;;;5.13;;
67053;SDS011;53960;51.826;5.850;2023-07-20T01:40:50;11.23;;;5.60;;
67053;SDS011;53960;51.826;5.850;2023-07-20T01:43:16;11.48;;;5.43;;
67053;SDS011;53960;51.826;5.850;2023-07-20T01:45:42;10.90;;;5.40;;
67053;SDS011;53960;51.826;5.850;2023-07-20T01:48:08;10.00;;;4.70;;
67053;SDS011;53960;51.826;5.850;2023-07-20T01:50:34;11.82;;;5.10;;
67053;SDS011;53960;51.826;5.850;2023-07-20T01:52:59;12.00;;;4.77;;
67053;SDS011;53960;51.826;5.850;2023-07-20T01:55:25;11.20;;;4.20;;
67053;SDS011;53960;51.826;5.850;2023-07-20T01:57:50;10.60;;;4.47;;
67053;SDS011;53960;51.826;5.850;2023-07-20T02:00:16;10.37;;;4.70;;
67053;SDS011;53960;51.826;5.850;2023-07-20T02:02:43;9.63;;;4.25;;
67053;SDS011;53960;51.826;5.850;2023-07-20T02:05:09;9.13;;;4.10;;
67053;SDS011;53960;51.826;5.850;2023-07-20T02:07:34;8.47;;;3.90;;
67053;SDS011;53960;51.826;5.850;2023-07-20T02:09:59;9.03;;;3.93;;
67053;SDS011;53960;51.826;5.850;2023-07-20T02:12:25;9.00;;;3.93;;
67053;SDS011;53960;51.826;5.850;2023-07-20T02:14:50;8.03;;;4.10;;
67053;SDS011;53960;51.826;5.850;2023-07-20T02:17:16;9.60;;;3.67;;
67053;SDS011;53960;51.826;5.850;2023-07-20T02:19:41;7.50;;;3.30;;
67053;SDS011;53960;51.826;5.850;2023-07-20T02:22:07;7.60;;;3.17;;
67053;SDS011;53960;51.826;5.850;2023-07-20T02:24:33;8.50;;;3.63;;
67053;SDS011;53960;51.826;5.850;2023-07-20T02:26:58;9.52;;;3.33;;
67053;SDS011;53960;51.826;5.850;2023-07-20T02:29:24;8.07;;;3.50;;
67053;SDS011;53960;51.826;5.850;2023-07-20T02:31:49;7.67;;;3.20;;
67053;SDS011;53960;51.826;5.850;2023-07-20T02:34:15;9.07;;;3.90;;
67053;SDS011;53960;51.826;5.850;2023-07-20T02:36:40;8.18;;;3.58;;
67053;SDS011;53960;51.826;5.850;2023-07-20T02:39:07;8.07;;;3.20;;
67053;SDS011;53960;51.826;5.850;2023-07-20T02:41:33;8.55;;;3.50;;
67053;SDS011;53960;51.826;5.850;2023-07-20T02:43:58;8.10;;;3.80;;
67053;SDS011;53960;51.826;5.850;2023-07-20T02:46:24;7.70;;;3.20;;
67053;SDS011;53960;51.826;5.850;2023-07-20T02:48:49;8.20;;;3.57;;
67053;SDS011;53960;51.826;5.850;2023-07-20T02:51:14;7.80;;;2.90;;
67053;SDS011;53960;51.826;5.850;2023-07-20T02:53:40;8.43;;;3.60;;
67053;SDS011;53960;51.826;5.850;2023-07-20T02:56:06;8.87;;;4.20;;
67053;SDS011;53960;51.826;5.850;2023-07-20T02:58:33;8.23;;;3.78;;
67053;SDS011;53960;51.826;5.850;2023-07-20T03:01:02;8.53;;;3.33;;
67053;SDS011;53960;51.826;5.850;2023-07-20T03:03:28;8.65;;;3.60;;
67053;SDS011;53960;51.826;5.850;2023-07-20T03:05:53;8.37;;;3.50;;
67053;SDS011;53960;51.826;5.850;2023-07-20T03:08:20;9.73;;;3.58;;
67053;SDS011;53960;51.826;5.850;2023-07-20T03:10:46;7.50;;;3.40;;
67053;SDS011;53960;51.826;5.850;2023-07-20T03:13:11;9.67;;;3.70;;
67053;SDS011;53960;51.826;5.850;2023-07-20T03:15:39;8.23;;;3.10;;
67053;SDS011;53960;51.826;5.850;2023-07-20T03:18:04;9.07;;;3.57;;
67053;SDS011;53960;51.826;5.850;2023-07-20T03:20:30;7.70;;;3.23;;
67053;SDS011;53960;51.826;5.850;2023-07-20T03:22:56;9.25;;;3.70;;
67053;SDS011;53960;51.826;5.850;2023-07-20T03:25:22;8.25;;;2.92;;
67053;SDS011;53960;51.826;5.850;2023-07-20T03:27:47;7.60;;;3.30;;
67053;SDS011;53960;51.826;5.850;2023-07-20T03:30:13;8.63;;;3.70;;
67053;SDS011;53960;51.826;5.850;2023-07-20T03:32:38;7.23;;;3.20;;
67053;SDS011;53960;51.826;5.850;2023-07-20T03:35:04;8.07;;;3.37;;
67053;SDS011;53960;51.826;5.850;2023-07-20T03:37:29;7.70;;;3.38;;
67053;SDS011;53960;51.826;5.850;2023-07-20T03:39:55;8.57;;;3.57;;
67053;SDS011;53960;51.826;5.850;2023-07-20T03:42:20;7.33;;;2.97;;
67053;SDS011;53960;51.826;5.850;2023-07-20T03:44:45;7.70;;;3.23;;
67053;SDS011;53960;51.826;5.850;2023-07-20T03:47:10;8.63;;;3.50;;
67053;SDS011;53960;51.826;5.850;2023-07-20T03:49:36;8.57;;;2.90;;
67053;SDS011;53960;51.826;5.850;2023-07-20T03:52:01;9.03;;;3.20;;
67053;SDS011;53960;51.826;5.850;2023-07-20T03:54:30;9.32;;;3.22;;
67053;SDS011;53960;51.826;5.850;2023-07-20T03:56:55;7.23;;;3.50;;
67053;SDS011;53960;51.826;5.850;2023-07-20T03:59:20;8.00;;;2.80;;
67053;SDS011;53960;51.826;5.850;2023-07-20T04:01:46;7.50;;;3.40;;
67053;SDS011;53960;51.826;5.850;2023-07-20T04:04:13;10.00;;;3.17;;
67053;SDS011;53960;51.826;5.850;2023-07-20T04:06:41;7.97;;;3.15;;
67053;SDS011;53960;51.826;5.850;2023-07-20T04:09:09;7.45;;;3.13;;
67053;SDS011;53960;51.826;5.850;2023-07-20T04:11:34;8.00;;;3.07;;
67053;SDS011;53960;51.826;5.850;2023-07-20T04:14:00;6.90;;;2.92;;
67053;SDS011;53960;51.826;5.850;2023-07-20T04:16:25;7.23;;;3.30;;
67053;SDS011;53960;51.826;5.850;2023-07-20T04:18:52;7.55;;;3.05;;
67053;SDS011;53960;51.826;5.850;2023-07-20T04:21:19;8.53;;;2.97;;
67053;SDS011;53960;51.826;5.850;2023-07-20T04:23:44;6.93;;;2.95;;
67053;SDS011;53960;51.826;5.850;2023-07-20T04:26:10;7.37;;;3.27;;
67053;SDS011;53960;51.826;5.850;2023-07-20T04:28:37;6.97;;;2.83;;
67053;SDS011;53960;51.826;5.850;2023-07-20T04:31:09;8.13;;;3.10;;
67053;SDS011;53960;51.826;5.850;2023-07-20T04:33:37;6.97;;;2.60;;
67053;SDS011;53960;51.826;5.850;2023-07-20T04:36:02;8.37;;;2.70;;
67053;SDS011;53960;51.826;5.850;2023-07-20T04:38:28;7.45;;;2.90;;
67053;SDS011;53960;51.826;5.850;2023-07-20T04:40:53;8.30;;;3.20;;
67053;SDS011;53960;51.826;5.850;2023-07-20T04:43:18;6.87;;;3.00;;
67053;SDS011;53960;51.826;5.850;2023-07-20T04:45:44;7.30;;;3.00;;
67053;SDS011;53960;51.826;5.850;2023-07-20T04:48:10;7.57;;;3.42;;
67053;SDS011;53960;51.826;5.850;2023-07-20T04:50:37;8.87;;;3.67;;
67053;SDS011;53960;51.826;5.850;2023-07-20T04:53:02;8.88;;;3.30;;
67053;SDS011;53960;51.826;5.850;2023-07-20T04:55:28;7.63;;;3.33;;
67053;SDS011;53960;51.826;5.850;2023-07-20T04:57:53;9.02;;;3.80;;
67053;SDS011;53960;51.826;5.850;2023-07-20T05:00:19;8.17;;;4.10;;
67053;SDS011;53960;51.826;5.850;2023-07-20T05:02:44;8.00;;;3.67;;
67053;SDS011;53960;51.826;5.850;2023-07-20T05:05:12;7.80;;;3.90;;
67053;SDS011;53960;51.826;5.850;2023-07-20T05:07:38;7.85;;;4.15;;
67053;SDS011;53960;51.826;5.850;2023-07-20T05:10:04;8.13;;;3.80;;
67053;SDS011;53960;51.826;5.850;2023-07-20T05:12:30;8.93;;;3.80;;
67053;SDS011;53960;51.826;5.850;2023-07-20T05:14:56;8.10;;;4.10;;
67053;SDS011;53960;51.826;5.850;2023-07-20T05:17:21;9.13;;;4.50;;
67053;SDS011;53960;51.826;5.850;2023-07-20T05:19:47;8.40;;;4.10;;
67053;SDS011;53960;51.826;5.850;2023-07-20T05:22:15;9.03;;;3.90;;
67053;SDS011;53960;51.826;5.850;2023-07-20T05:24:41;10.05;;;3.97;;
67053;SDS011;53960;51.826;5.850;2023-07-20T05:27:06;8.53;;;4.33;;
67053;SDS011;53960;51.826;5.850;2023-07-20T05:29:31;9.07;;;4.43;;
67053;SDS011;53960;51.826;5.850;2023-07-20T05:31:58;8.73;;;3.88;;
67053;SDS011;53960;51.826;5.850;2023-07-20T05:34:23;8.73;;;4.00;;
67053;SDS011;53960;51.826;5.850;2023-07-20T05:36:48;9.20;;;4.10;;
67053;SDS011;53960;51.826;5.850;2023-07-20T05:39:14;7.80;;;3.40;;
67053;SDS011;53960;51.826;5.850;2023-07-20T05:41:41;8.38;;;3.50;;
67053;SDS011;53960;51.826;5.850;2023-07-20T05:44:07;9.00;;;4.00;;
67053;SDS011;53960;51.826;5.850;2023-07-20T05:46:32;9.07;;;3.83;;
67053;SDS011;53960;51.826;5.850;2023-07-20T05:48:58;8.90;;;3.37;;
67053;SDS011;53960;51.826;5.850;2023-07-20T05:51:23;9.37;;;3.40;;
67053;SDS011;53960;51.826;5.850;2023-07-20T05:53:48;7.33;;;3.20;;
67053;SDS011;53960;51.826;5.850;2023-07-20T05:56:14;7.50;;;3.10;;
67053;SDS011;53960;51.826;5.850;2023-07-20T05:58:39;7.23;;;2.67;;
67053;SDS011;53960;51.826;5.850;2023-07-20T06:01:04;7.03;;;2.55;;
67053;SDS011;53960;51.826;5.850;2023-07-20T06:03:33;8.97;;;3.00;;
67053;SDS011;53960;51.826;5.850;2023-07-20T06:06:02;8.77;;;3.15;;
67053;SDS011;53960;51.826;5.850;2023-07-20T06:08:29;7.40;;;2.65;;
67053;SDS011;53960;51.826;5.850;2023-07-20T06:10:54;7.63;;;2.83;;
67053;SDS011;53960;51.826;5.850;2023-07-20T06:13:20;7.10;;;2.30;;
67053;SDS011;53960;51.826;5.850;2023-07-20T06:15:45;7.23;;;2.60;;
67053;SDS011;53960;51.826;5.850;2023-07-20T06:18:12;8.60;;;2.40;;
67053;SDS011;53960;51.826;5.850;2023-07-20T06:20:37;7.37;;;2.57;;
67053;SDS011;53960;51.826;5.850;2023-07-20T06:23:03;6.63;;;2.00;;
67053;SDS011;53960;51.826;5.850;2023-07-20T06:25:28;6.93;;;1.80;;
67053;SDS011;53960;51.826;5.850;2023-07-20T06:27:54;6.50;;;2.10;;
67053;SDS011;53960;51.826;5.850;2023-07-20T06:30:20;7.65;;;1.90;;
67053;SDS011;53960;51.826;5.850;2023-07-20T06:32:46;6.77;;;2.10;;
67053;SDS011;53960;51.826;5.850;2023-07-20T06:35:12;6.67;;;2.07;;
67053;SDS011;53960;51.826;5.850;2023-07-20T06:37:37;7.67;;;2.10;;
67053;SDS011;53960;51.826;5.850;2023-07-20T06:40:03;6.80;;;1.90;;
67053;SDS011;53960;51.826;5.850;2023-07-20T06:42:29;6.00;;;1.88;;
67053;SDS011;53960;51.826;5.850;2023-07-20T06:44:56;6.35;;;1.83;;
67053;SDS011;53960;51.826;5.850;2023-07-20T06:47:21;6.10;;;1.92;;
67053;SDS011;53960;51.826;5.850;2023-07-20T06:49:47;6.70;;;2.00;;
67053;SDS011;53960;51.826;5.850;2023-07-20T06:52:12;7.07;;;1.70;;
67053;SDS011;53960;51.826;5.850;2023-07-20T06:54:37;6.07;;;1.83;;
67053;SDS011;53960;51.826;5.850;2023-07-20T06:57:04;7.22;;;1.48;;
67053;SDS011;53960;51.826;5.850;2023-07-20T06:59:30;4.68;;;1.15;;
67053;SDS011;53960;51.826;5.850;2023-07-20T07:01:56;5.73;;;1.63;;
67053;SDS011;53960;51.826;5.850;2023-07-20T07:04:22;5.13;;;1.23;;
67053;SDS011;53960;51.826;5.850;2023-07-20T07:06:47;5.50;;;1.25;;
67053;SDS011;53960;51.826;5.850;2023-07-20T07:09:13;5.03;;;0.90;;
67053;SDS011;53960;51.826;5.850;2023-07-20T07:11:39;5.40;;;1.05;;
67053;SDS011;53960;51.826;5.850;2023-07-20T07:14:04;5.03;;;1.20;;
67053;SDS011;53960;51.826;5.850;2023-07-20T07:16:29;6.23;;;1.33;;
67053;SDS011;53960;51.826;5.850;2023-07-20T07:18:55;4.77;;;1.10;;
67053;SDS011;53960;51.826;5.850;2023-07-20T07:21:20;5.53;;;1.08;;
67053;SDS011;53960;51.826;5.850;2023-07-20T07:23:46;4.77;;;0.90;;
67053;SDS011;53960;51.826;5.850;2023-07-20T07:26:12;3.33;;;0.82;;
67053;SDS011;53960;51.826;5.850;2023-07-20T07:28:37;5.10;;;0.90;;
67053;SDS011;53960;51.826;5.850;2023-07-20T07:31:06;3.73;;;0.73;;
67053;SDS011;53960;51.826;5.850;2023-07-20T07:33:32;4.68;;;1.27;;
67053;SDS011;53960;51.826;5.850;2023-07-20T07:35:57;4.53;;;1.10;;
67053;SDS011;53960;51.826;5.850;2023-07-20T07:38:23;4.28;;;0.98;;
67053;SDS011;53960;51.826;5.850;2023-07-20T07:40:48;4.90;;;1.17;;
67053;SDS011;53960;51.826;5.850;2023-07-20T07:43:13;5.60;;;1.10;;
67053;SDS011;53960;51.826;5.850;2023-07-20T07:45:39;5.30;;;1.03;;
67053;SDS011;53960;51.826;5.850;2023-07-20T07:48:05;5.95;;;1.42;;
67053;SDS011;53960;51.826;5.850;2023-07-20T07:50:31;4.95;;;1.08;;
67053;SDS011;53960;51.826;5.850;2023-07-20T07:52:57;5.28;;;1.20;;
67053;SDS011;53960;51.826;5.850;2023-07-20T07:55:24;3.60;;;0.80;;
67053;SDS011;53960;51.826;5.850;2023-07-20T07:57:51;4.68;;;1.05;;
67053;SDS011;53960;51.826;5.850;2023-07-20T08:00:17;5.20;;;1.03;;
67053;SDS011;53960;51.826;5.850;2023-07-20T08:02:44;7.00;;;1.00;;
67053;SDS011;53960;51.826;5.850;2023-07-20T08:05:11;5.18;;;1.50;;
67053;SDS011;53960;51.826;5.850;2023-07-20T08:07:37;6.30;;;0.90;;
67053;SDS011;53960;51.826;5.850;2023-07-20T08:10:03;5.45;;;1.40;;
67053;SDS011;53960;51.826;5.850;2023-07-20T08:12:28;5.90;;;1.40;;
67053;SDS011;53960;51.826;5.850;2023-07-20T08:14:54;5.43;;;1.10;;
67053;SDS011;53960;51.826;5.850;2023-07-20T08:17:19;4.37;;;1.00;;
67053;SDS011;53960;51.826;5.850;2023-07-20T08:19:45;3.87;;;1.00;;
67053;SDS011;53960;51.826;5.850;2023-07-20T08:22:11;7.63;;;1.60;;
67053;SDS011;53960;51.826;5.850;2023-07-20T08:24:40;5.82;;;1.10;;
67053;SDS011;53960;51.826;5.850;2023-07-20T08:27:06;5.03;;;1.00;;
67053;SDS011;53960;51.826;5.850;2023-07-20T08:29:32;5.87;;;1.10;;
67053;SDS011;53960;51.826;5.850;2023-07-20T08:31:57;5.27;;;1.23;;
67053;SDS011;53960;51.826;5.850;2023-07-20T08:34:23;4.37;;;1.10;;
67053;SDS011;53960;51.826;5.850;2023-07-20T08:36:48;4.13;;;0.90;;
67053;SDS011;53960;51.826;5.850;2023-07-20T08:39:13;5.10;;;1.03;;
67053;SDS011;53960;51.826;5.850;2023-07-20T08:41:39;4.22;;;0.95;;
67053;SDS011;53960;51.826;5.850;2023-07-20T08:44:07;6.50;;;1.10;;
67053;SDS011;53960;51.826;5.850;2023-07-20T08:46:34;5.20;;;1.10;;
67053;SDS011;53960;51.826;5.850;2023-07-20T08:49:01;4.47;;;1.00;;
67053;SDS011;53960;51.826;5.850;2023-07-20T08:51:28;4.22;;;0.85;;
67053;SDS011;53960;51.826;5.850;2023-07-20T08:53:54;6.45;;;1.05;;
67053;SDS011;53960;51.826;5.850;2023-07-20T08:56:19;6.97;;;1.00;;
67053;SDS011;53960;51.826;5.850;2023-07-20T08:58:46;5.53;;;0.90;;
67053;SDS011;53960;51.826;5.850;2023-07-20T09:01:12;4.77;;;1.10;;
67053;SDS011;53960;51.826;5.850;2023-07-20T09:03:39;4.82;;;1.02;;
67053;SDS011;53960;51.826;5.850;2023-07-20T09:06:05;4.67;;;1.10;;
67053;SDS011;53960;51.826;5.850;2023-07-20T09:08:31;5.17;;;1.17;;
67053;SDS011;53960;51.826;5.850;2023-07-20T09:10:56;5.18;;;1.10;;
67053;SDS011;53960;51.826;5.850;2023-07-20T09:13:22;5.73;;;1.20;;
67053;SDS011;53960;51.826;5.850;2023-07-20T09:15:53;4.90;;;1.15;;
67053;SDS011;53960;51.826;5.850;2023-07-20T09:18:26;4.88;;;1.20;;
67053;SDS011;53960;51.826;5.850;2023-07-20T09:20:53;5.03;;;1.13;;
67053;SDS011;53960;51.826;5.850;2023-07-20T09:23:29;5.00;;;1.15;;
67053;SDS011;53960;51.826;5.850;2023-07-20T09:26:04;6.10;;;1.10;;
67053;SDS011;53960;51.826;5.850;2023-07-20T09:28:41;7.13;;;1.20;;
67053;SDS011;53960;51.826;5.850;2023-07-20T09:31:14;4.88;;;0.95;;
67053;SDS011;53960;51.826;5.850;2023-07-20T09:33:41;3.70;;;1.00;;
67053;SDS011;53960;51.826;5.850;2023-07-20T09:36:07;4.57;;;0.90;;
67053;SDS011;53960;51.826;5.850;2023-07-20T09:38:36;4.03;;;0.90;;
67053;SDS011;53960;51.826;5.850;2023-07-20T09:41:02;5.40;;;1.30;;
67053;SDS011;53960;51.826;5.850;2023-07-20T09:43:30;5.18;;;1.23;;
67053;SDS011;53960;51.826;5.850;2023-07-20T09:45:57;4.63;;;1.10;;
67053;SDS011;53960;51.826;5.850;2023-07-20T09:48:24;4.97;;;1.15;;
67053;SDS011;53960;51.826;5.850;2023-07-20T09:50:50;3.72;;;0.80;;
67053;SDS011;53960;51.826;5.850;2023-07-20T09:53:16;3.70;;;0.90;;
67053;SDS011;53960;51.826;5.850;2023-07-20T09:55:43;4.50;;;1.02;;
67053;SDS011;53960;51.826;5.850;2023-07-20T09:58:09;3.80;;;0.70;;
67053;SDS011;53960;51.826;5.850;2023-07-20T10:00:36;4.13;;;0.85;;
67053;SDS011;53960;51.826;5.850;2023-07-20T10:03:03;5.78;;;0.98;;
67053;SDS011;53960;51.826;5.850;2023-07-20T10:05:32;4.75;;;1.20;;
67053;SDS011;53960;51.826;5.850;2023-07-20T10:08:00;4.18;;;0.90;;
67053;SDS011;53960;51.826;5.850;2023-07-20T10:10:27;4.97;;;1.10;;
67053;SDS011;53960;51.826;5.850;2023-07-20T10:12:53;3.88;;;0.90;;
67053;SDS011;53960;51.826;5.850;2023-07-20T10:15:20;4.57;;;1.17;;
67053;SDS011;53960;51.826;5.850;2023-07-20T10:18:38;5.35;;;1.17;;
67053;SDS011;53960;51.826;5.850;2023-07-20T10:20:42;9.25;;;1.33;;
67053;SDS011;53960;51.826;5.850;2023-07-20T10:23:09;4.67;;;1.10;;
67053;SDS011;53960;51.826;5.850;2023-07-20T10:25:36;4.53;;;1.00;;
67053;SDS011;53960;51.826;5.850;2023-07-20T10:28:04;6.55;;;1.30;;
67053;SDS011;53960;51.826;5.850;2023-07-20T10:30:31;4.97;;;0.98;;
67053;SDS011;53960;51.826;5.850;2023-07-20T10:32:57;5.20;;;1.10;;
67053;SDS011;53960;51.826;5.850;2023-07-20T10:35:23;7.33;;;1.30;;
67053;SDS011;53960;51.826;5.850;2023-07-20T10:37:49;6.13;;;1.43;;
67053;SDS011;53960;51.826;5.850;2023-07-20T10:42:56;5.30;;;1.20;;
67053;SDS011;53960;51.826;5.850;2023-07-20T10:45:40;4.63;;;1.00;;
67053;SDS011;53960;51.826;5.850;2023-07-20T10:48:13;4.32;;;1.02;;
67053;SDS011;53960;51.826;5.850;2023-07-20T10:50:41;4.35;;;1.00;;
67053;SDS011;53960;51.826;5.850;2023-07-20T10:53:11;5.25;;;1.00;;
67053;SDS011;53960;51.826;5.850;2023-07-20T10:55:38;4.90;;;1.30;;
67053;SDS011;53960;51.826;5.850;2023-07-20T10:58:11;4.43;;;1.00;;
67053;SDS011;53960;51.826;5.850;2023-07-20T11:03:28;4.43;;;1.10;;
67053;SDS011;53960;51.826;5.850;2023-07-20T11:05:56;4.68;;;0.80;;
67053;SDS011;53960;51.826;5.850;2023-07-20T11:08:41;4.53;;;1.02;;
67053;SDS011;53960;51.826;5.850;2023-07-20T11:11:26;5.17;;;1.33;;
67053;SDS011;53960;51.826;5.850;2023-07-20T11:14:02;4.43;;;1.20;;
67053;SDS011;53960;51.826;5.850;2023-07-20T11:16:42;5.30;;;1.20;;
67053;SDS011;53960;51.826;5.850;2023-07-20T11:19:24;5.50;;;1.00;;
67053;SDS011;53960;51.826;5.850;2023-07-20T11:21:52;4.53;;;1.20;;
67053;SDS011;53960;51.826;5.850;2023-07-20T11:24:18;5.30;;;1.60;;
67053;SDS011;53960;51.826;5.850;2023-07-20T11:26:45;5.63;;;1.40;;
67053;SDS011;53960;51.826;5.850;2023-07-20T11:29:12;5.55;;;1.30;;
67053;SDS011;53960;51.826;5.850;2023-07-20T11:31:38;6.03;;;1.40;;
67053;SDS011;53960;51.826;5.850;2023-07-20T11:34:05;5.07;;;1.38;;
67053;SDS011;53960;51.826;5.850;2023-07-20T11:36:31;6.83;;;1.70;;
67053;SDS011;53960;51.826;5.850;2023-07-20T11:38:56;5.82;;;1.67;;
67053;SDS011;53960;51.826;5.850;2023-07-20T11:41:24;5.30;;;1.50;;
67053;SDS011;53960;51.826;5.850;2023-07-20T11:43:50;6.53;;;1.23;;
67053;SDS011;53960;51.826;5.850;2023-07-20T11:46:15;5.50;;;1.40;;
67053;SDS011;53960;51.826;5.850;2023-07-20T11:48:41;4.75;;;1.20;;
67053;SDS011;53960;51.826;5.850;2023-07-20T11:51:08;7.00;;;1.60;;
67053;SDS011;53960;51.826;5.850;2023-07-20T11:53:39;5.22;;;1.60;;
67053;SDS011;53960;51.826;5.850;2023-07-20T11:56:05;4.80;;;1.17;;
67053;SDS011;53960;51.826;5.850;2023-07-20T11:58:30;5.57;;;1.40;;
67053;SDS011;53960;51.826;5.850;2023-07-20T12:00:56;7.17;;;1.80;;
67053;SDS011;53960;51.826;5.850;2023-07-20T12:03:22;4.83;;;1.30;;
67053;SDS011;53960;51.826;5.850;2023-07-20T12:05:47;20.23;;;3.60;;
67053;SDS011;53960;51.826;5.850;2023-07-20T12:08:14;9.43;;;2.10;;
67053;SDS011;53960;51.826;5.850;2023-07-20T12:10:40;7.60;;;2.42;;
67053;SDS011;53960;51.826;5.850;2023-07-20T12:13:09;7.55;;;1.60;;
67053;SDS011;53960;51.826;5.850;2023-07-20T12:15:35;11.33;;;1.80;;
67053;SDS011;53960;51.826;5.850;2023-07-20T12:18:02;24.67;;;6.25;;
67053;SDS011;53960;51.826;5.850;2023-07-20T12:22:59;10.82;;;2.35;;
67053;SDS011;53960;51.826;5.850;2023-07-20T12:25:38;6.50;;;2.10;;
67053;SDS011;53960;51.826;5.850;2023-07-20T12:28:05;6.57;;;1.80;;
67053;SDS011;53960;51.826;5.850;2023-07-20T12:30:32;6.45;;;1.50;;
67053;SDS011;53960;51.826;5.850;2023-07-20T12:32:58;6.78;;;2.00;;
67053;SDS011;53960;51.826;5.850;2023-07-20T12:35:23;5.93;;;1.70;;
67053;SDS011;53960;51.826;5.850;2023-07-20T12:37:49;6.30;;;1.95;;
67053;SDS011;53960;51.826;5.850;2023-07-20T12:40:16;5.95;;;1.83;;
67053;SDS011;53960;51.826;5.850;2023-07-20T12:42:42;5.77;;;1.60;;
67053;SDS011;53960;51.826;5.850;2023-07-20T12:45:07;7.30;;;1.73;;
67053;SDS011;53960;51.826;5.850;2023-07-20T12:47:33;8.10;;;1.50;;
67053;SDS011;53960;51.826;5.850;2023-07-20T12:49:59;6.80;;;1.43;;
67053;SDS011;53960;51.826;5.850;2023-07-20T12:52:24;5.22;;;1.50;;
67053;SDS011;53960;51.826;5.850;2023-07-20T12:54:50;7.53;;;2.10;;
67053;SDS011;53960;51.826;5.850;2023-07-20T12:57:15;8.10;;;2.00;;
67053;SDS011;53960;51.826;5.850;2023-07-20T12:59:40;6.30;;;1.95;;
67053;SDS011;53960;51.826;5.850;2023-07-20T13:02:06;6.50;;;1.90;;
67053;SDS011;53960;51.826;5.850;2023-07-20T13:04:31;6.33;;;1.50;;
67053;SDS011;53960;51.826;5.850;2023-07-20T13:06:56;7.10;;;2.27;;
67053;SDS011;53960;51.826;5.850;2023-07-20T13:09:23;5.50;;;1.77;;
67053;SDS011;53960;51.826;5.850;2023-07-20T13:11:49;5.70;;;1.50;;
67053;SDS011;53960;51.826;5.850;2023-07-20T13:14:14;5.83;;;1.20;;
67053;SDS011;53960;51.826;5.850;2023-07-20T13:16:39;7.23;;;1.53;;
67053;SDS011;53960;51.826;5.850;2023-07-20T13:19:05;5.93;;;1.60;;
67053;SDS011;53960;51.826;5.850;2023-07-20T13:21:30;5.73;;;1.60;;
67053;SDS011;53960;51.826;5.850;2023-07-20T13:23:55;6.43;;;1.40;;
67053;SDS011;53960;51.826;5.850;2023-07-20T13:26:21;6.93;;;1.90;;
67053;SDS011;53960;51.826;5.850;2023-07-20T13:28:47;6.03;;;1.90;;
67053;SDS011;53960;51.826;5.850;2023-07-20T13:31:12;5.43;;;1.70;;
67053;SDS011;53960;51.826;5.850;2023-07-20T13:33:37;5.15;;;1.58;;
67053;SDS011;53960;51.826;5.850;2023-07-20T13:36:03;6.73;;;1.60;;
67053;SDS011;53960;51.826;5.850;2023-07-20T13:38:30;5.13;;;1.40;;
67053;SDS011;53960;51.826;5.850;2023-07-20T13:40:56;6.03;;;1.90;;
67053;SDS011;53960;51.826;5.850;2023-07-20T13:43:22;5.40;;;1.50;;
67053;SDS011;53960;51.826;5.850;2023-07-20T13:45:47;6.53;;;1.70;;
67053;SDS011;53960;51.826;5.850;2023-07-20T13:48:13;6.93;;;1.80;;
67053;SDS011;53960;51.826;5.850;2023-07-20T13:50:39;6.25;;;1.50;;
67053;SDS011;53960;51.826;5.850;2023-07-20T13:53:04;4.73;;;1.40;;
67053;SDS011;53960;51.826;5.850;2023-07-20T13:55:30;6.20;;;1.80;;
67053;SDS011;53960;51.826;5.850;2023-07-20T13:57:56;6.10;;;1.50;;
67053;SDS011;53960;51.826;5.850;2023-07-20T14:00:21;6.17;;;1.70;;
67053;SDS011;53960;51.826;5.850;2023-07-20T14:02:46;5.63;;;1.40;;
67053;SDS011;53960;51.826;5.850;2023-07-20T14:05:12;5.37;;;1.67;;
67053;SDS011;53960;51.826;5.850;2023-07-20T14:07:37;5.70;;;1.70;;
67053;SDS011;53960;51.826;5.850;2023-07-20T14:10:03;5.33;;;1.77;;
67053;SDS011;53960;51.826;5.850;2023-07-20T14:12:28;6.00;;;1.90;;
67053;SDS011;53960;51.826;5.850;2023-07-20T14:14:54;5.33;;;1.50;;
67053;SDS011;53960;51.826;5.850;2023-07-20T14:17:20;6.80;;;1.90;;
67053;SDS011;53960;51.826;5.850;2023-07-20T14:19:45;6.87;;;2.50;;
67053;SDS011;53960;51.826;5.850;2023-07-20T14:22:11;6.60;;;1.83;;
67053;SDS011;53960;51.826;5.850;2023-07-20T14:24:36;7.13;;;1.90;;
67053;SDS011;53960;51.826;5.850;2023-07-20T14:27:01;9.40;;;1.83;;
67053;SDS011;53960;51.826;5.850;2023-07-20T14:29:27;5.97;;;2.30;;
67053;SDS011;53960;51.826;5.850;2023-07-20T14:31:56;5.90;;;2.17;;
67053;SDS011;53960;51.826;5.850;2023-07-20T14:34:21;6.37;;;2.23;;
67053;SDS011;53960;51.826;5.850;2023-07-20T14:36:47;6.60;;;2.30;;
67053;SDS011;53960;51.826;5.850;2023-07-20T14:39:12;6.57;;;2.20;;
67053;SDS011;53960;51.826;5.850;2023-07-20T14:41:37;6.00;;;1.90;;
67053;SDS011;53960;51.826;5.850;2023-07-20T14:44:03;5.50;;;1.83;;
67053;SDS011;53960;51.826;5.850;2023-07-20T14:46:28;6.85;;;1.80;;
67053;SDS011;53960;51.826;5.850;2023-07-20T14:48:54;5.60;;;1.87;;
67053;SDS011;53960;51.826;5.850;2023-07-20T14:51:20;6.05;;;2.10;;
67053;SDS011;53960;51.826;5.850;2023-07-20T14:53:45;5.50;;;2.00;;
67053;SDS011;53960;51.826;5.850;2023-07-20T14:56:10;6.50;;;2.10;;
67053;SDS011;53960;51.826;5.850;2023-07-20T14:58:36;5.90;;;1.60;;